createdAt,value
2022-11-21T00:01:26.046Z,-4.50
2022-11-21T00:03:53.647Z,-4.60
2022-11-21T00:06:21.054Z,-4.70
2022-11-21T00:08:48.264Z,-4.70
2022-11-21T00:11:15.565Z,-4.80
2022-11-21T00:13:43.472Z,-4.80
2022-11-21T00:16:13.945Z,-4.80
2022-11-21T00:18:42.392Z,-4.80
2022-11-21T00:21:13.657Z,-4.90
2022-11-21T00:23:41.627Z,-4.90
2022-11-21T00:26:10.351Z,-5.00
2022-11-21T00:28:37.829Z,-4.90
2022-11-21T00:31:06.238Z,-4.90
2022-11-21T00:33:37.268Z,-5.00
2022-11-21T00:36:09.120Z,-5.00
2022-11-21T00:38:36.880Z,-5.10
2022-11-21T00:41:04.325Z,-5.10
2022-11-21T00:43:32.768Z,-5.20
2022-11-21T00:46:01.444Z,-5.20
2022-11-21T00:48:29.917Z,-5.20
2022-11-21T00:50:57.128Z,-5.30
2022-11-21T00:53:24.282Z,-5.40
2022-11-21T00:55:51.156Z,-5.40
2022-11-21T00:58:18.533Z,-5.40
2022-11-21T01:00:45.452Z,-5.40
2022-11-21T01:03:12.838Z,-5.40
2022-11-21T01:05:39.664Z,-5.50
2022-11-21T01:08:06.827Z,-5.50
2022-11-21T01:10:35.556Z,-5.50
2022-11-21T01:13:03.240Z,-5.50
2022-11-21T01:15:30.202Z,-5.40
2022-11-21T01:17:57.306Z,-5.40
2022-11-21T01:20:24.159Z,-5.40
2022-11-21T01:22:51.542Z,-5.50
2022-11-21T01:25:18.506Z,-5.50
2022-11-21T01:27:45.609Z,-5.60
2022-11-21T01:30:14.475Z,-5.60
2022-11-21T01:32:41.657Z,-5.60
2022-11-21T01:35:08.790Z,-5.60
2022-11-21T01:37:35.905Z,-5.60
2022-11-21T01:40:03.548Z,-5.60
2022-11-21T01:42:46.963Z,-5.50
2022-11-21T01:45:53.236Z,-5.50
2022-11-21T01:48:32.580Z,-5.50
2022-11-21T01:51:07.780Z,-5.50
2022-11-21T01:53:36.561Z,-5.60
2022-11-21T01:56:03.960Z,-5.60
2022-11-21T01:58:32.648Z,-5.60
2022-11-21T02:00:59.913Z,-5.60
2022-11-21T02:03:31.612Z,-5.60
2022-11-21T02:05:59.310Z,-5.50
2022-11-21T02:08:27.486Z,-5.50
2022-11-21T02:11:09.094Z,-5.60
2022-11-21T02:13:36.207Z,-5.60
2022-11-21T02:16:03.252Z,-5.60
2022-11-21T02:18:30.386Z,-5.70
2022-11-21T02:21:05.226Z,-5.70
2022-11-21T02:24:03.585Z,-5.80
2022-11-21T02:26:30.735Z,-5.80
2022-11-21T02:28:58.427Z,-5.70
2022-11-21T02:31:25.305Z,-5.70
2022-11-21T02:33:52.428Z,-5.70
2022-11-21T02:36:48.743Z,-5.70
2022-11-21T02:39:33.874Z,-5.70
2022-11-21T02:42:23.702Z,-5.80
2022-11-21T02:44:56.958Z,-5.70
2022-11-21T02:47:24.251Z,-5.70
2022-11-21T02:50:00.100Z,-5.60
2022-11-21T02:52:27.267Z,-5.60
2022-11-21T02:54:54.380Z,-5.60
2022-11-21T02:57:21.256Z,-5.60
2022-11-21T02:59:48.745Z,-5.60
2022-11-21T03:02:15.634Z,-5.70
2022-11-21T03:04:42.827Z,-5.70
2022-11-21T03:07:09.747Z,-5.70
2022-11-21T03:09:36.934Z,-5.70
2022-11-21T03:12:08.282Z,-5.70
2022-11-21T03:14:36.765Z,-5.80
2022-11-21T03:17:04.562Z,-5.80
2022-11-21T03:19:31.708Z,-5.80
2022-11-21T03:21:58.571Z,-5.80
2022-11-21T03:24:25.890Z,-5.80
2022-11-21T03:26:53.120Z,-5.70
2022-11-21T03:29:20.287Z,-5.70
2022-11-21T03:31:47.171Z,-5.70
2022-11-21T03:34:14.665Z,-5.70
2022-11-21T03:36:41.589Z,-5.70
2022-11-21T03:39:09.003Z,-5.70
2022-11-21T03:41:35.902Z,-5.70
2022-11-21T03:44:06.149Z,-5.70
2022-11-21T03:46:35.357Z,-5.70
2022-11-21T03:49:02.612Z,-5.70
2022-11-21T03:51:29.931Z,-5.70
2022-11-21T03:53:57.084Z,-5.70
2022-11-21T03:56:24.582Z,-5.70
2022-11-21T03:58:52.292Z,-5.60
2022-11-21T04:01:19.689Z,-5.60
2022-11-21T04:03:47.185Z,-5.50
2022-11-21T04:06:15.787Z,-5.40
2022-11-21T04:08:43.341Z,-5.40
2022-11-21T04:11:10.433Z,-5.30
2022-11-21T04:13:38.229Z,-5.20
2022-11-21T04:16:05.539Z,-5.10
2022-11-21T04:18:34.679Z,-5.00
2022-11-21T04:21:04.420Z,-4.90
2022-11-21T04:23:31.903Z,-4.90
2022-11-21T04:25:59.560Z,-4.90
2022-11-21T04:28:26.804Z,-4.80
2022-11-21T04:30:55.131Z,-4.80
2022-11-21T04:33:22.787Z,-4.80
2022-11-21T04:35:49.671Z,-4.80
2022-11-21T04:38:17.037Z,-4.90
2022-11-21T04:40:45.364Z,-4.90
2022-11-21T04:43:12.518Z,-5.00
2022-11-21T04:45:39.393Z,-5.00
2022-11-21T04:48:06.711Z,-5.10
2022-11-21T04:50:33.867Z,-5.10
2022-11-21T04:53:01.029Z,-5.10
2022-11-21T04:55:31.219Z,-5.10
2022-11-21T04:57:59.032Z,-5.10
2022-11-21T05:00:25.930Z,-5.10
2022-11-21T05:02:53.151Z,-5.10
2022-11-21T05:05:20.092Z,-5.00
2022-11-21T05:07:47.208Z,-5.10
2022-11-21T05:10:14.065Z,-5.10
2022-11-21T05:12:59.711Z,-5.00
2022-11-21T05:15:26.588Z,-5.00
2022-11-21T05:17:53.758Z,-4.80
2022-11-21T05:20:20.593Z,-4.80
2022-11-21T05:22:52.114Z,-4.70
2022-11-21T05:25:19.074Z,-4.60
2022-11-21T05:27:46.543Z,-4.60
2022-11-21T05:30:13.669Z,-4.60
2022-11-21T05:32:40.786Z,-4.50
2022-11-21T05:35:08.282Z,-4.40
2022-11-21T05:37:35.443Z,-4.40
2022-11-21T05:40:02.316Z,-4.40
2022-11-21T05:42:48.260Z,-4.40
2022-11-21T05:45:15.143Z,-4.30
2022-11-21T05:47:42.411Z,-4.30
2022-11-21T05:50:09.523Z,-4.30
2022-11-21T05:52:36.693Z,-4.30
2022-11-21T05:55:03.680Z,-4.30
2022-11-21T05:57:31.166Z,-4.20
2022-11-21T05:59:58.027Z,-4.20
2022-11-21T06:02:43.773Z,-4.20
2022-11-21T06:05:10.662Z,-4.20
2022-11-21T06:07:37.839Z,-4.20
2022-11-21T06:10:05.202Z,-4.20
2022-11-21T06:12:32.583Z,-4.30
2022-11-21T06:14:59.414Z,-4.30
2022-11-21T06:17:26.855Z,-4.30
2022-11-21T06:19:53.797Z,-4.20
2022-11-21T06:22:20.965Z,-4.10
2022-11-21T06:24:47.863Z,-4.10
2022-11-21T06:27:14.969Z,-4.10
2022-11-21T06:29:41.811Z,-3.90
2022-11-21T06:32:09.018Z,-4.00
2022-11-21T06:34:35.860Z,-3.90
2022-11-21T06:37:03.020Z,-3.90
2022-11-21T06:39:29.847Z,-3.90
2022-11-21T06:41:57.053Z,-3.80
2022-11-21T06:44:24.055Z,-3.80
2022-11-21T06:46:51.771Z,-3.70
2022-11-21T06:49:19.052Z,-3.70
2022-11-21T06:51:46.185Z,-3.60
2022-11-21T06:54:16.712Z,-3.60
2022-11-21T06:56:44.542Z,-3.60
2022-11-21T06:59:11.471Z,-3.60
2022-11-21T07:01:38.679Z,-3.60
2022-11-21T07:04:05.621Z,-3.50
2022-11-21T07:06:34.963Z,-3.50
2022-11-21T07:11:49.018Z,-3.40
2022-11-21T07:14:17.214Z,-3.30
2022-11-21T07:16:44.309Z,-3.30
2022-11-21T07:19:11.771Z,-3.30
2022-11-21T07:21:38.911Z,-3.20
2022-11-21T07:24:06.219Z,-3.20
2022-11-21T07:26:33.378Z,-3.20
2022-11-21T07:29:00.278Z,-3.10
2022-11-21T07:31:27.647Z,-3.10
2022-11-21T07:33:54.662Z,-3.10
2022-11-21T07:36:21.992Z,-3.00
2022-11-21T07:38:48.852Z,-2.90
2022-11-21T07:41:15.993Z,-2.90
2022-11-21T07:43:42.847Z,-2.90
2022-11-21T07:46:10.266Z,-2.70
2022-11-21T07:48:37.396Z,-2.80
2022-11-21T07:51:05.955Z,-2.70
2022-11-21T07:53:33.025Z,-2.60
2022-11-21T07:56:00.235Z,-2.60
2022-11-21T07:58:27.375Z,-2.50
2022-11-21T08:00:54.611Z,-2.50
2022-11-21T08:03:22.683Z,-2.50
2022-11-21T08:05:49.968Z,-2.50
2022-11-21T08:08:16.900Z,-2.40
2022-11-21T08:10:45.704Z,-2.30
2022-11-21T08:13:13.586Z,-2.30
2022-11-21T08:15:41.321Z,-2.30
2022-11-21T08:18:13.405Z,-2.20
2022-11-21T08:20:40.646Z,-2.20
2022-11-21T08:23:07.608Z,-2.10
2022-11-21T08:25:37.104Z,-2.10
2022-11-21T08:28:04.555Z,-2.00
2022-11-21T08:30:33.317Z,-2.00
2022-11-21T08:33:01.295Z,-1.90
2022-11-21T08:35:29.288Z,-1.90
2022-11-21T08:38:02.523Z,-1.80
2022-11-21T08:40:31.477Z,-1.80
2022-11-21T08:43:02.698Z,-1.70
2022-11-21T08:45:30.198Z,-1.70
2022-11-21T08:47:57.149Z,-1.60
2022-11-21T08:50:24.759Z,-1.60
2022-11-21T08:52:51.760Z,-1.60
2022-11-21T08:55:18.900Z,-1.60
2022-11-21T08:57:45.766Z,-1.60
2022-11-21T09:00:13.904Z,-1.50
2022-11-21T09:02:40.860Z,-1.50
2022-11-21T09:05:09.106Z,-1.40
2022-11-21T09:07:36.547Z,-1.30
2022-11-21T09:10:04.626Z,-1.30
2022-11-21T09:12:31.841Z,-1.20
2022-11-21T09:15:18.264Z,-1.20
2022-11-21T09:18:03.229Z,-1.10
2022-11-21T09:20:31.944Z,-1.00
2022-11-21T09:23:08.238Z,-0.90
2022-11-21T09:25:35.817Z,-0.90
2022-11-21T09:28:04.561Z,-0.80
2022-11-21T09:30:32.553Z,-0.70
2022-11-21T09:33:04.430Z,-0.70
2022-11-21T09:35:31.942Z,-0.70
2022-11-21T09:37:59.517Z,-0.70
2022-11-21T09:40:28.879Z,-0.70
2022-11-21T09:43:18.589Z,-0.70
2022-11-21T09:45:50.708Z,-0.70
2022-11-21T09:48:33.166Z,-0.70
2022-11-21T09:51:06.109Z,-0.70
2022-11-21T09:53:37.634Z,-0.60
2022-11-21T09:56:08.982Z,-0.60
2022-11-21T09:58:46.988Z,-0.60
2022-11-21T10:01:15.463Z,-0.50
2022-11-21T10:04:03.742Z,-0.40
2022-11-21T10:06:45.486Z,-0.40
2022-11-21T10:09:24.063Z,-0.40
2022-11-21T10:12:42.534Z,-0.30
2022-11-21T10:15:29.117Z,-0.30
2022-11-21T10:18:28.234Z,-0.40
2022-11-21T10:21:20.302Z,-0.40
2022-11-21T10:24:19.094Z,-0.60
2022-11-21T10:26:53.348Z,-0.60
2022-11-21T10:29:34.172Z,-0.60
2022-11-21T10:32:18.225Z,-0.70
2022-11-21T10:34:46.731Z,-0.60
2022-11-21T10:37:19.344Z,-0.60
2022-11-21T10:39:50.960Z,-0.50
2022-11-21T10:42:26.640Z,-0.50
2022-11-21T10:45:12.398Z,-0.40
2022-11-21T10:47:39.307Z,-0.50
2022-11-21T10:50:09.663Z,-0.40
2022-11-21T10:53:01.442Z,-0.40
2022-11-21T10:55:28.686Z,-0.40
2022-11-21T10:57:55.603Z,-0.30
2022-11-21T11:00:25.528Z,-0.30
2022-11-21T11:02:55.441Z,-0.20
2022-11-21T11:05:27.283Z,-0.20
2022-11-21T11:08:11.756Z,-0.10
2022-11-21T11:10:44.733Z,-0.10
2022-11-21T11:13:50.963Z,-0.10
2022-11-21T11:16:21.842Z,-0.10
2022-11-21T11:19:17.368Z,0.00
2022-11-21T11:21:45.466Z,0.00
2022-11-21T11:24:12.381Z,0.10
2022-11-21T11:26:49.094Z,0.10
2022-11-21T11:29:18.906Z,0.20
2022-11-21T11:32:05.130Z,0.20
2022-11-21T11:34:41.110Z,0.30
2022-11-21T11:37:17.342Z,0.30
2022-11-21T11:39:44.192Z,0.30
2022-11-21T11:42:52.450Z,0.40
2022-11-21T11:46:14.730Z,0.50
2022-11-21T11:49:16.789Z,0.50
2022-11-21T11:51:46.902Z,0.60
2022-11-21T11:54:47.074Z,0.70
2022-11-21T11:57:14.417Z,0.80
2022-11-21T11:59:47.195Z,0.90
2022-11-21T12:02:20.428Z,0.90
2022-11-21T12:04:56.538Z,1.00
2022-11-21T12:08:33.256Z,1.00
2022-11-21T12:10:31.134Z,1.10
2022-11-21T12:13:14.013Z,1.10
2022-11-21T12:15:49.353Z,1.10
2022-11-21T12:18:22.259Z,1.10
2022-11-21T12:20:55.826Z,1.10
2022-11-21T12:23:27.337Z,1.10
2022-11-21T12:26:18.380Z,1.10
2022-11-21T12:29:15.356Z,1.10
2022-11-21T12:32:04.735Z,1.20
2022-11-21T12:34:49.309Z,1.20
2022-11-21T12:37:43.769Z,1.30
2022-11-21T12:40:42.836Z,1.30
2022-11-21T12:43:30.990Z,1.30
2022-11-21T12:46:03.010Z,1.30
2022-11-21T12:49:09.171Z,1.40
2022-11-21T12:52:10.138Z,1.30
2022-11-21T12:54:49.553Z,1.30
2022-11-21T12:57:21.359Z,1.30
2022-11-21T12:59:58.486Z,1.30
2022-11-21T13:02:47.908Z,1.30
2022-11-21T13:05:25.021Z,1.30
2022-11-21T13:08:01.088Z,1.40
2022-11-21T13:10:28.924Z,1.30
2022-11-21T13:13:14.655Z,1.30
2022-11-21T13:15:54.778Z,1.30
2022-11-21T13:18:30.302Z,1.30
2022-11-21T13:20:57.483Z,1.30
2022-11-21T13:23:37.022Z,1.30
2022-11-21T13:26:26.042Z,1.30
2022-11-21T13:29:09.007Z,1.30
2022-11-21T13:31:36.496Z,1.30
2022-11-21T13:34:05.333Z,1.30
2022-11-21T13:36:35.938Z,1.30
2022-11-21T13:39:03.583Z,1.30
2022-11-21T13:41:55.616Z,1.30
2022-11-21T13:44:31.825Z,1.30
2022-11-21T13:47:20.571Z,1.30
2022-11-21T13:50:05.505Z,1.30
2022-11-21T13:52:49.797Z,1.30
2022-11-21T13:56:00.992Z,1.40
2022-11-21T13:58:40.049Z,1.40
2022-11-21T14:01:24.253Z,1.40
2022-11-21T14:04:22.696Z,1.40
2022-11-21T14:06:49.760Z,1.40
2022-11-21T14:09:21.779Z,1.40
2022-11-21T14:12:02.019Z,1.40
2022-11-21T14:14:49.677Z,1.40
2022-11-21T14:17:47.805Z,1.30
2022-11-21T14:20:26.092Z,1.40
2022-11-21T14:23:04.539Z,1.40
2022-11-21T14:25:40.677Z,1.40
2022-11-21T14:28:12.540Z,1.40
2022-11-21T14:30:42.783Z,1.40
2022-11-21T14:33:32.875Z,1.40
2022-11-21T14:36:21.566Z,1.40
2022-11-21T14:39:13.735Z,1.40
2022-11-21T14:41:39.600Z,1.40
2022-11-21T14:44:15.382Z,1.40
2022-11-21T14:46:43.766Z,1.40
2022-11-21T14:49:16.649Z,1.40
2022-11-21T14:51:57.876Z,1.40
2022-11-21T14:55:15.068Z,1.40
2022-11-21T14:57:42.476Z,1.40
2022-11-21T15:00:43.173Z,1.30
2022-11-21T15:03:04.113Z,1.40
2022-11-21T15:06:00.832Z,1.40
2022-11-21T15:08:55.776Z,1.30
2022-11-21T15:11:12.241Z,1.30
2022-11-21T15:14:06.554Z,1.30
2022-11-21T15:16:27.632Z,1.30
2022-11-21T15:18:55.196Z,1.30
2022-11-21T15:21:22.115Z,1.30
2022-11-21T15:23:51.441Z,1.30
2022-11-21T15:26:32.975Z,1.30
2022-11-21T15:29:01.282Z,1.30
2022-11-21T15:31:28.967Z,1.30
2022-11-21T15:34:34.703Z,1.30
2022-11-21T15:37:25.441Z,1.40
2022-11-21T15:39:53.667Z,1.40
2022-11-21T15:42:32.968Z,1.40
2022-11-21T15:45:02.652Z,1.40
2022-11-21T15:47:29.725Z,1.40
2022-11-21T15:49:56.961Z,1.40
2022-11-21T15:52:23.988Z,1.40
2022-11-21T15:54:51.138Z,1.30
2022-11-21T15:59:50.922Z,1.30
2022-11-21T16:02:18.215Z,1.30
2022-11-21T16:04:46.177Z,1.30
2022-11-21T16:07:13.072Z,1.30
2022-11-21T16:09:42.083Z,1.30
2022-11-21T16:12:14.206Z,1.30
2022-11-21T16:14:41.356Z,1.30
2022-11-21T16:17:08.614Z,1.20
2022-11-21T16:19:35.782Z,1.30
2022-11-21T16:22:02.657Z,1.20
2022-11-21T16:24:29.823Z,1.20
2022-11-21T16:26:57.222Z,1.20
2022-11-21T16:29:24.379Z,1.20
2022-11-21T16:31:51.837Z,1.10
2022-11-21T16:34:20.187Z,1.10
2022-11-21T16:36:47.082Z,1.20
2022-11-21T16:39:18.281Z,1.20
2022-11-21T16:41:47.326Z,1.20
2022-11-21T16:44:16.435Z,1.10
2022-11-21T16:46:47.315Z,1.10
2022-11-21T16:49:15.307Z,1.10
2022-11-21T16:51:42.211Z,1.10
2022-11-21T16:54:10.765Z,1.10
2022-11-21T16:56:38.190Z,1.10
2022-11-21T16:59:05.394Z,1.10
2022-11-21T17:01:32.429Z,1.10
2022-11-21T17:03:59.764Z,1.10
2022-11-21T17:06:29.784Z,1.10
2022-11-21T17:09:00.877Z,1.10
2022-11-21T17:11:33.695Z,1.10
2022-11-21T17:14:02.498Z,1.10
2022-11-21T17:16:30.293Z,1.10
2022-11-21T17:18:59.554Z,1.10
2022-11-21T17:21:27.860Z,1.10
2022-11-21T17:23:55.481Z,1.10
2022-11-21T17:26:24.799Z,1.10
2022-11-21T17:28:53.484Z,1.10
2022-11-21T17:31:20.864Z,1.10
2022-11-21T17:33:51.765Z,1.20
2022-11-21T17:36:29.699Z,1.20
2022-11-21T17:38:57.413Z,1.20
2022-11-21T17:41:25.385Z,1.30
2022-11-21T17:43:57.418Z,1.30
2022-11-21T17:46:25.833Z,1.30
2022-11-21T17:48:57.745Z,1.30
2022-11-21T17:51:29.099Z,1.30
2022-11-21T17:53:57.010Z,1.30
2022-11-21T17:56:26.582Z,1.30
2022-11-21T17:58:54.255Z,1.30
2022-11-21T18:01:22.067Z,1.30
2022-11-21T18:03:56.856Z,1.40
2022-11-21T18:06:25.276Z,1.40
2022-11-21T18:08:52.447Z,1.40
2022-11-21T18:11:21.721Z,1.40
2022-11-21T18:13:49.764Z,1.40
2022-11-21T18:16:19.457Z,1.50
2022-11-21T18:18:47.720Z,1.50
2022-11-21T18:21:17.719Z,1.50
2022-11-21T18:23:45.557Z,1.50
2022-11-21T18:26:21.128Z,1.50
2022-11-21T18:29:06.864Z,1.50
2022-11-21T18:31:37.717Z,1.40
2022-11-21T18:34:06.705Z,1.40
2022-11-21T18:36:33.591Z,1.30
2022-11-21T18:39:07.185Z,1.30
2022-11-21T18:41:39.097Z,1.20
2022-11-21T18:44:06.914Z,1.20
2022-11-21T18:46:35.882Z,1.20
2022-11-21T18:49:06.973Z,1.20
2022-11-21T18:51:35.839Z,1.20
2022-11-21T18:54:08.279Z,1.10
2022-11-21T18:56:38.499Z,1.10
2022-11-21T18:59:06.440Z,1.10
2022-11-21T19:01:35.284Z,1.10
2022-11-21T19:04:03.026Z,1.10
2022-11-21T19:06:30.128Z,1.00
2022-11-21T19:08:58.696Z,1.00
2022-11-21T19:11:28.572Z,1.00
2022-11-21T19:13:57.060Z,1.00
2022-11-21T19:16:25.811Z,1.00
2022-11-21T19:19:33.665Z,1.00
2022-11-21T19:21:43.818Z,1.00
2022-11-21T19:24:16.113Z,1.00
2022-11-21T19:26:43.314Z,1.00
2022-11-21T19:29:11.209Z,1.00
2022-11-21T19:31:44.647Z,0.90
2022-11-21T19:34:13.118Z,0.90
2022-11-21T19:36:40.332Z,0.90
2022-11-21T19:39:07.751Z,0.80
2022-11-21T19:41:34.700Z,0.80
2022-11-21T19:44:02.596Z,0.80
2022-11-21T19:46:34.632Z,0.80
2022-11-21T19:49:02.672Z,0.70
2022-11-21T19:51:32.354Z,0.70
2022-11-21T19:54:02.089Z,0.60
2022-11-21T19:56:29.162Z,0.60
2022-11-21T19:58:56.993Z,0.60
2022-11-21T20:01:26.450Z,0.60
2022-11-21T20:03:55.593Z,0.60
2022-11-21T20:06:31.778Z,0.60
2022-11-21T20:09:01.766Z,0.60
2022-11-21T20:11:30.412Z,0.60
2022-11-21T20:13:58.449Z,0.60
2022-11-21T20:16:34.074Z,0.60
2022-11-21T20:19:06.836Z,0.50
2022-11-21T20:21:34.249Z,0.50
2022-11-21T20:24:02.015Z,0.60
2022-11-21T20:26:29.119Z,0.50
2022-11-21T20:28:56.668Z,0.50
2022-11-21T20:31:28.977Z,0.50
2022-11-21T20:34:01.412Z,0.50
2022-11-21T20:36:32.459Z,0.50
2022-11-21T20:39:02.541Z,0.50
2022-11-21T20:41:35.221Z,0.50
2022-11-21T20:46:53.394Z,0.50
2022-11-21T20:49:20.866Z,0.40
2022-11-21T20:53:20.621Z,0.40
2022-11-21T20:54:35.655Z,0.40
2022-11-21T20:57:02.525Z,0.30
2022-11-21T20:59:30.094Z,0.30
2022-11-21T21:05:07.373Z,0.30
2022-11-21T21:07:37.617Z,0.30
2022-11-21T21:10:05.469Z,0.30
2022-11-21T21:12:33.002Z,0.30
2022-11-21T21:14:59.873Z,0.30
2022-11-21T21:17:27.395Z,0.30
2022-11-21T21:19:54.251Z,0.20
2022-11-21T21:22:21.382Z,0.20
2022-11-21T21:24:48.394Z,0.20
2022-11-21T21:27:15.637Z,0.20
2022-11-21T21:29:42.519Z,0.20
2022-11-21T21:32:09.739Z,0.20
2022-11-21T21:34:36.792Z,0.20
2022-11-21T21:37:03.955Z,0.10
2022-11-21T21:39:30.796Z,0.10
2022-11-21T21:41:58.081Z,0.10
2022-11-21T21:44:31.552Z,0.10
2022-11-21T21:47:00.303Z,0.10
2022-11-21T21:49:27.179Z,0.10
2022-11-21T21:51:54.330Z,0.10
2022-11-21T21:54:21.523Z,0.10
2022-11-21T21:56:50.008Z,0.10
2022-11-21T21:59:18.231Z,0.10
2022-11-21T22:01:46.037Z,0.00
2022-11-21T22:04:13.353Z,0.00
2022-11-21T22:06:40.879Z,0.00
2022-11-21T22:09:07.839Z,0.00
2022-11-21T22:11:39.284Z,0.00
2022-11-21T22:14:10.945Z,0.00
2022-11-21T22:16:38.611Z,0.10
2022-11-21T22:19:05.501Z,0.10
2022-11-21T22:21:34.794Z,0.00
2022-11-21T22:24:27.480Z,0.00
2022-11-21T22:26:55.359Z,0.00
2022-11-21T22:29:22.298Z,0.00
2022-11-21T22:31:50.975Z,0.00
2022-11-21T22:34:17.961Z,0.00
2022-11-21T22:36:46.701Z,0.00
2022-11-21T22:39:13.869Z,0.00
2022-11-21T22:41:41.088Z,0.00
2022-11-21T22:44:07.927Z,0.00
2022-11-21T22:46:35.225Z,0.00
2022-11-21T22:49:02.064Z,0.00
2022-11-21T22:51:29.990Z,-0.10
2022-11-21T22:53:57.319Z,0.00
2022-11-21T22:56:25.763Z,0.00
2022-11-21T22:58:53.067Z,-0.10
2022-11-21T23:01:24.833Z,0.00
2022-11-21T23:03:52.633Z,0.00
2022-11-21T23:06:23.675Z,-0.10
2022-11-21T23:08:52.316Z,-0.10
2022-11-21T23:11:22.841Z,-0.10
2022-11-21T23:13:51.057Z,-0.10
2022-11-21T23:16:19.150Z,-0.10
2022-11-21T23:18:46.185Z,-0.10
2022-11-21T23:21:14.200Z,-0.10
2022-11-21T23:23:41.386Z,-0.10
2022-11-21T23:26:09.965Z,0.00
2022-11-21T23:28:36.989Z,0.00
2022-11-21T23:31:04.416Z,-0.10
2022-11-21T23:33:31.307Z,-0.10
2022-11-21T23:35:58.489Z,-0.10
2022-11-21T23:38:25.389Z,-0.10
2022-11-21T23:40:52.599Z,-0.10
2022-11-21T23:43:19.836Z,-0.10
2022-11-21T23:45:51.673Z,-0.20
2022-11-21T23:48:19.271Z,-0.20
2022-11-21T23:50:47.563Z,-0.20
2022-11-21T23:53:14.604Z,-0.30
2022-11-21T23:55:43.264Z,-0.30
2022-11-21T23:58:10.772Z,-0.20
